Time;durP1;ratioP1;P1;durP2;ratioP2;P2;SDS_P1;SDS_P2;PMS_P1;PMS_P2;Temp;Humidity;BMP_temperature;BMP_pressure;BME280_temperature;BME280_humidity;BME280_pressure;Samples;Min_cycle;Max_cycle;Signal;HPM_P1;HPM_P2
2022/12/01 00:01:43;;;;;;;76.72;17.70;;;;;;;;;;5130319;27;20487;-43
2022/12/01 00:04:10;;;;;;;41.65;13.75;;;;;;;;;;5130468;27;20055;-43
2022/12/01 00:06:37;;;;;;;43.25;13.07;;;;;;;;;;5129518;27;20043;-43
2022/12/01 00:11:48;;;;;;;57.95;16.13;;;;;;;;;;5129888;27;20053;-45
2022/12/01 00:14:15;;;;;;;61.13;16.08;;;;;;;;;;5130117;27;20038;-43
2022/12/01 00:16:43;;;;;;;86.45;19.30;;;;;;;;;;5129649;27;20058;-43
2022/12/01 00:19:10;;;;;;;56.80;15.52;;;;;;;;;;5128812;27;20035;-43
2022/12/01 00:21:36;;;;;;;53.08;15.60;;;;;;;;;;5129009;27;20039;-43
2022/12/01 00:24:03;;;;;;;47.00;15.25;;;;;;;;;;5110299;27;20035;-44
2022/12/01 00:26:29;;;;;;;62.08;16.92;;;;;;;;;;5125674;27;20046;-43
2022/12/01 00:28:57;;;;;;;42.17;14.43;;;;;;;;;;5122758;27;20031;-43
2022/12/01 00:31:24;;;;;;;57.85;15.93;;;;;;;;;;5130971;27;20044;-43
2022/12/01 00:33:51;;;;;;;39.25;14.32;;;;;;;;;;5129494;27;20039;-43
2022/12/01 00:36:18;;;;;;;58.38;17.10;;;;;;;;;;5129479;27;20028;-43
2022/12/01 00:38:44;;;;;;;61.92;20.42;;;;;;;;;;5129688;27;20054;-43
2022/12/01 00:41:11;;;;;;;56.88;21.65;;;;;;;;;;5130188;27;20035;-43
2022/12/01 00:43:38;;;;;;;71.53;21.83;;;;;;;;;;5129393;27;20043;-43
2022/12/01 00:46:05;;;;;;;80.63;25.95;;;;;;;;;;5129583;27;20510;-43
2022/12/01 00:48:32;;;;;;;69.72;26.00;;;;;;;;;;5129815;27;20074;-43
2022/12/01 00:50:58;;;;;;;52.00;23.60;;;;;;;;;;5110825;27;20043;-43
2022/12/01 00:53:25;;;;;;;75.68;24.27;;;;;;;;;;5110363;27;20065;-44
2022/12/01 00:55:54;;;;;;;68.30;23.70;;;;;;;;;;5128952;27;20092;-43
2022/12/01 00:58:21;;;;;;;68.00;27.45;;;;;;;;;;5129597;27;20038;-43
2022/12/01 01:00:48;;;;;;;70.57;24.00;;;;;;;;;;5129743;27;20046;-45
2022/12/01 01:03:15;;;;;;;63.22;21.77;;;;;;;;;;5128930;27;20499;-42
2022/12/01 01:05:41;;;;;;;54.78;19.77;;;;;;;;;;5129385;27;20070;-42
2022/12/01 01:08:09;;;;;;;72.85;21.50;;;;;;;;;;5128592;27;20031;-43
2022/12/01 01:10:39;;;;;;;54.28;18.67;;;;;;;;;;5128378;27;20084;-45
2022/12/01 01:13:05;;;;;;;72.28;19.10;;;;;;;;;;5129183;27;20039;-43
2022/12/01 01:15:32;;;;;;;49.70;17.80;;;;;;;;;;5128582;27;20398;-43
2022/12/01 01:17:59;;;;;;;64.30;18.90;;;;;;;;;;5128533;27;20087;-44
2022/12/01 01:20:26;;;;;;;68.95;19.73;;;;;;;;;;5128293;27;20034;-45
2022/12/01 01:22:52;;;;;;;66.10;19.00;;;;;;;;;;5128721;27;20047;-43
2022/12/01 01:25:19;;;;;;;44.58;17.13;;;;;;;;;;5129486;27;20042;-46
2022/12/01 01:27:45;;;;;;;57.15;18.95;;;;;;;;;;5128506;27;20043;-43
2022/12/01 01:30:12;;;;;;;68.68;20.23;;;;;;;;;;5127970;27;20453;-44
2022/12/01 01:32:38;;;;;;;49.50;19.23;;;;;;;;;;5128085;27;20046;-44
2022/12/01 01:35:05;;;;;;;56.72;19.00;;;;;;;;;;5128114;27;20035;-44
2022/12/01 01:37:31;;;;;;;56.88;19.88;;;;;;;;;;5109915;27;20514;-44
2022/12/01 01:39:58;;;;;;;64.40;19.83;;;;;;;;;;5129343;27;20487;-43
2022/12/01 01:42:24;;;;;;;54.78;19.23;;;;;;;;;;5128877;27;20114;-43
2022/12/01 01:44:51;;;;;;;51.58;18.33;;;;;;;;;;5128597;27;20051;-43
2022/12/01 01:47:38;;;;;;;59.83;19.33;;;;;;;;;;5127871;27;20123;-43
2022/12/01 01:50:08;;;;;;;60.33;20.48;;;;;;;;;;5127976;27;20043;-43
2022/12/01 01:52:37;;;;;;;68.85;19.85;;;;;;;;;;5127680;27;20066;-42
2022/12/01 01:55:04;;;;;;;59.92;19.15;;;;;;;;;;5129032;27;20032;-43
2022/12/01 01:57:31;;;;;;;47.50;19.10;;;;;;;;;;5128482;27;20495;-43
2022/12/01 02:00:02;;;;;;;54.00;20.08;;;;;;;;;;5128106;27;20031;-43
2022/12/01 02:02:39;;;;;;;48.65;19.23;;;;;;;;;;5128285;27;20043;-43
2022/12/01 02:05:10;;;;;;;62.55;20.75;;;;;;;;;;5128659;27;20043;-42
2022/12/01 02:07:38;;;;;;;61.70;20.13;;;;;;;;;;5128949;27;20103;-42
2022/12/01 02:10:05;;;;;;;52.63;18.92;;;;;;;;;;5129399;27;20491;-43
2022/12/01 02:12:35;;;;;;;58.60;20.45;;;;;;;;;;5127531;27;20069;-43
2022/12/01 02:15:10;;;;;;;44.33;18.95;;;;;;;;;;5128671;27;20045;-44
2022/12/01 02:17:40;;;;;;;53.00;18.98;;;;;;;;;;5128207;27;20047;-42
2022/12/01 02:20:07;;;;;;;66.65;21.13;;;;;;;;;;5124900;27;20031;-44
2022/12/01 02:22:33;;;;;;;57.35;20.20;;;;;;;;;;5128896;27;20082;-43
2022/12/01 02:25:14;;;;;;;55.30;19.55;;;;;;;;;;5128582;27;20042;-43
2022/12/01 02:28:00;;;;;;;67.68;21.45;;;;;;;;;;5108982;27;20067;-43
2022/12/01 02:30:35;;;;;;;71.93;21.88;;;;;;;;;;5125481;27;20384;-45
2022/12/01 02:33:15;;;;;;;47.97;19.88;;;;;;;;;;5123817;27;20656;-44
2022/12/01 02:36:03;;;;;;;51.95;20.38;;;;;;;;;;5123683;27;20497;-46
2022/12/01 02:38:35;;;;;;;64.63;20.40;;;;;;;;;;5124259;27;20041;-43
2022/12/01 02:41:20;;;;;;;62.47;21.17;;;;;;;;;;5127992;27;20035;-43
2022/12/01 02:43:53;;;;;;;104.38;24.55;;;;;;;;;;5127912;27;20035;-46
2022/12/01 02:46:22;;;;;;;63.85;21.00;;;;;;;;;;5129401;27;20039;-43
2022/12/01 02:48:51;;;;;;;55.15;20.67;;;;;;;;;;5127944;27;20118;-44
2022/12/01 02:51:17;;;;;;;54.42;20.25;;;;;;;;;;5127707;27;20126;-43
2022/12/01 02:53:44;;;;;;;53.17;22.30;;;;;;;;;;5127247;27;20073;-43
2022/12/01 02:56:13;;;;;;;77.75;24.23;;;;;;;;;;5127732;27;20682;-43
2022/12/01 02:58:40;;;;;;;79.40;22.92;;;;;;;;;;5128358;27;20039;-45
2022/12/01 03:01:26;;;;;;;67.50;22.38;;;;;;;;;;5127201;27;20581;-45
2022/12/01 03:03:58;;;;;;;69.03;20.67;;;;;;;;;;5126518;27;20104;-46
2022/12/01 03:06:43;;;;;;;62.47;21.60;;;;;;;;;;5124606;27;20524;-43
2022/12/01 03:09:16;;;;;;;61.47;20.67;;;;;;;;;;5126420;27;20043;-44
2022/12/01 03:12:09;;;;;;;51.50;20.60;;;;;;;;;;5132036;27;20046;-43
2022/12/01 03:14:35;;;;;;;58.03;20.63;;;;;;;;;;5024287;28;20094;-44
2022/12/01 03:17:14;;;;;;;70.65;22.27;;;;;;;;;;5027643;28;20041;-42
2022/12/01 03:19:42;;;;;;;90.10;25.42;;;;;;;;;;5027265;28;20057;-43
2022/12/01 03:22:11;;;;;;;53.30;20.95;;;;;;;;;;5029639;28;20045;-44
2022/12/01 03:24:39;;;;;;;51.25;20.67;;;;;;;;;;5027787;28;20037;-44
2022/12/01 03:27:08;;;;;;;53.90;20.02;;;;;;;;;;5027874;28;20037;-44
2022/12/01 03:29:38;;;;;;;50.60;21.05;;;;;;;;;;5027908;28;20038;-43
2022/12/01 03:32:11;;;;;;;64.00;20.90;;;;;;;;;;5027469;28;20644;-44
2022/12/01 03:34:41;;;;;;;60.90;21.45;;;;;;;;;;5028458;28;20045;-43
2022/12/01 03:37:21;;;;;;;64.32;22.52;;;;;;;;;;5025456;28;20137;-43
2022/12/01 03:39:48;;;;;;;60.90;22.33;;;;;;;;;;5027096;28;20045;-46
2022/12/01 03:42:19;;;;;;;71.45;22.10;;;;;;;;;;5026439;28;20049;-45
2022/12/01 03:44:48;;;;;;;59.10;22.20;;;;;;;;;;5027098;28;20192;-44
2022/12/01 03:47:23;;;;;;;61.58;22.27;;;;;;;;;;5026803;28;20184;-45
2022/12/01 03:49:50;;;;;;;59.95;21.98;;;;;;;;;;5027655;28;20050;-43
2022/12/01 03:52:17;;;;;;;64.72;21.73;;;;;;;;;;5113626;27;20055;-45
2022/12/01 03:54:58;;;;;;;66.65;23.33;;;;;;;;;;5130296;27;20054;-43
2022/12/01 03:57:38;;;;;;;46.25;20.15;;;;;;;;;;5128439;27;20036;-44
2022/12/01 04:00:06;;;;;;;52.20;21.02;;;;;;;;;;5128257;27;20073;-44
2022/12/01 04:02:37;;;;;;;66.25;21.67;;;;;;;;;;5111502;27;20051;-47
2022/12/01 04:05:04;;;;;;;62.92;22.30;;;;;;;;;;5131406;27;20035;-43
2022/12/01 04:07:31;;;;;;;57.40;21.75;;;;;;;;;;5131663;27;20050;-43
2022/12/01 04:09:57;;;;;;;50.75;21.20;;;;;;;;;;5130874;27;20495;-44
2022/12/01 04:12:31;;;;;;;79.80;23.17;;;;;;;;;;5129883;27;20039;-45
2022/12/01 04:14:59;;;;;;;59.58;21.95;;;;;;;;;;5130642;27;20027;-45
2022/12/01 04:17:26;;;;;;;69.05;22.67;;;;;;;;;;5130536;27;20495;-43
2022/12/01 04:19:52;;;;;;;51.03;20.25;;;;;;;;;;5131128;27;20376;-45
2022/12/01 04:22:19;;;;;;;59.70;21.17;;;;;;;;;;5131008;27;20049;-43
2022/12/01 04:24:46;;;;;;;65.00;22.15;;;;;;;;;;5130511;27;20185;-44
2022/12/01 04:27:12;;;;;;;55.25;20.83;;;;;;;;;;5112232;27;20040;-45
2022/12/01 04:29:39;;;;;;;55.38;21.58;;;;;;;;;;5129977;27;20491;-43
2022/12/01 04:32:05;;;;;;;51.90;20.25;;;;;;;;;;5130528;27;20044;-43
2022/12/01 04:34:32;;;;;;;69.35;20.98;;;;;;;;;;5131069;27;20097;-43
2022/12/01 04:36:59;;;;;;;48.65;19.60;;;;;;;;;;5131612;27;20039;-43
2022/12/01 04:39:25;;;;;;;52.38;21.65;;;;;;;;;;5128702;27;20111;-47
2022/12/01 04:41:52;;;;;;;49.33;19.50;;;;;;;;;;5130418;27;20662;-42
2022/12/01 04:44:18;;;;;;;75.53;21.85;;;;;;;;;;5129394;27;20039;-44
2022/12/01 04:46:45;;;;;;;60.72;19.70;;;;;;;;;;5130655;27;20039;-43
2022/12/01 04:49:11;;;;;;;51.63;19.30;;;;;;;;;;5129907;27;20065;-44
2022/12/01 04:51:38;;;;;;;40.85;17.02;;;;;;;;;;5129915;27;20042;-44
2022/12/01 04:54:05;;;;;;;62.17;19.92;;;;;;;;;;5129577;27;20043;-45
2022/12/01 04:56:32;;;;;;;64.25;19.40;;;;;;;;;;5129947;27;20422;-43
2022/12/01 04:58:59;;;;;;;49.60;17.55;;;;;;;;;;5129917;27;20054;-46
2022/12/01 05:01:25;;;;;;;50.50;18.58;;;;;;;;;;5130076;27;20120;-48
2022/12/01 05:03:52;;;;;;;60.05;19.00;;;;;;;;;;5128512;27;20071;-44
2022/12/01 05:06:20;;;;;;;61.83;19.70;;;;;;;;;;5129547;27;20407;-44
2022/12/01 05:08:47;;;;;;;47.60;17.30;;;;;;;;;;5129565;27;20039;-44
2022/12/01 05:11:14;;;;;;;59.10;18.70;;;;;;;;;;5129283;27;20045;-43
2022/12/01 05:13:42;;;;;;;62.00;19.27;;;;;;;;;;5126641;27;20046;-44
2022/12/01 05:16:08;;;;;;;54.05;18.65;;;;;;;;;;5129885;27;20035;-45
2022/12/01 05:18:35;;;;;;;50.95;17.10;;;;;;;;;;5129087;27;20058;-44
2022/12/01 05:21:02;;;;;;;60.88;18.52;;;;;;;;;;5128550;27;20499;-43
2022/12/01 05:23:30;;;;;;;58.50;17.75;;;;;;;;;;5128971;27;20039;-44
2022/12/01 05:25:57;;;;;;;48.92;18.98;;;;;;;;;;5129112;27;20065;-44
2022/12/01 05:28:25;;;;;;;64.68;20.60;;;;;;;;;;5129591;27;20039;-44
2022/12/01 05:30:53;;;;;;;47.78;18.77;;;;;;;;;;5129345;27;20457;-42
2022/12/01 05:33:19;;;;;;;75.57;20.40;;;;;;;;;;5126887;27;20050;-48
2022/12/01 05:35:47;;;;;;;62.60;19.50;;;;;;;;;;5128442;27;20037;-47
2022/12/01 05:38:14;;;;;;;69.72;19.77;;;;;;;;;;5127664;27;20059;-48
2022/12/01 05:40:40;;;;;;;52.60;19.95;;;;;;;;;;5125762;27;20403;-46
2022/12/01 05:43:07;;;;;;;74.90;21.67;;;;;;;;;;5128873;27;20035;-49
2022/12/01 05:45:33;;;;;;;44.83;17.85;;;;;;;;;;5128908;27;20035;-48
2022/12/01 05:48:00;;;;;;;51.08;18.80;;;;;;;;;;5124260;27;20035;-47
2022/12/01 05:50:28;;;;;;;54.90;18.73;;;;;;;;;;5128139;27;20037;-48
2022/12/01 05:52:55;;;;;;;46.97;17.45;;;;;;;;;;5128734;27;20058;-47
2022/12/01 05:55:21;;;;;;;52.17;18.10;;;;;;;;;;5129035;27;20034;-47
2022/12/01 05:57:48;;;;;;;34.67;15.32;;;;;;;;;;5127709;27;20043;-49
2022/12/01 06:00:15;;;;;;;61.40;18.02;;;;;;;;;;5128598;27;20031;-48
2022/12/01 06:02:41;;;;;;;53.38;17.83;;;;;;;;;;5124471;27;20051;-46
2022/12/01 06:05:08;;;;;;;47.75;17.38;;;;;;;;;;5127606;27;20043;-47
2022/12/01 06:07:34;;;;;;;57.70;18.13;;;;;;;;;;5126771;27;20043;-47
2022/12/01 06:10:01;;;;;;;61.90;18.95;;;;;;;;;;5127528;27;20143;-47
2022/12/01 06:12:28;;;;;;;68.63;18.65;;;;;;;;;;5123205;27;20035;-47
2022/12/01 06:14:54;;;;;;;62.30;19.48;;;;;;;;;;5126016;27;20058;-48
2022/12/01 06:17:21;;;;;;;67.03;18.20;;;;;;;;;;5088514;27;20067;-46
2022/12/01 06:19:47;;;;;;;68.68;19.48;;;;;;;;;;5125194;27;20186;-48
2022/12/01 06:22:14;;;;;;;61.10;18.30;;;;;;;;;;5107265;28;20578;-51
2022/12/01 06:24:40;;;;;;;52.03;18.15;;;;;;;;;;5127783;27;20410;-51
2022/12/01 06:27:07;;;;;;;48.58;17.30;;;;;;;;;;5128413;27;20040;-48
2022/12/01 06:29:33;;;;;;;48.45;17.08;;;;;;;;;;5127949;27;20035;-47
2022/12/01 06:32:07;;;;;;;;;;;;;;;;;;5126183;27;20411;-48
2022/12/01 06:34:33;;;;;;;53.80;16.95;;;;;;;;;;5129209;27;19927;-51
2022/12/01 06:37:00;;;;;;;44.38;16.48;;;;;;;;;;5128931;27;20039;-48
2022/12/01 06:39:26;;;;;;;64.60;18.98;;;;;;;;;;5127074;27;20050;-48
2022/12/01 06:41:53;;;;;;;63.40;18.92;;;;;;;;;;5125789;27;20047;-48
2022/12/01 06:44:19;;;;;;;62.83;19.17;;;;;;;;;;5129216;27;20055;-49
2022/12/01 06:46:46;;;;;;;71.53;19.83;;;;;;;;;;5132001;27;20411;-50
2022/12/01 06:49:12;;;;;;;55.72;19.35;;;;;;;;;;5133240;27;20163;-50
2022/12/01 06:51:39;;;;;;;59.92;18.27;;;;;;;;;;5131744;27;20046;-49
2022/12/01 06:54:05;;;;;;;45.15;17.70;;;;;;;;;;5132127;27;20050;-48
2022/12/01 06:56:32;;;;;;;41.95;16.40;;;;;;;;;;5131293;27;20301;-47
2022/12/01 06:58:58;;;;;;;48.85;18.88;;;;;;;;;;5132368;27;20031;-46
2022/12/01 07:01:25;;;;;;;51.90;20.40;;;;;;;;;;5115176;27;20039;-51
2022/12/01 07:03:52;;;;;;;56.58;19.75;;;;;;;;;;5131973;27;20043;-51
2022/12/01 07:06:19;;;;;;;55.05;18.98;;;;;;;;;;5131964;27;20043;-49
2022/12/01 07:08:45;;;;;;;53.92;19.45;;;;;;;;;;5131273;27;20126;-47
2022/12/01 07:11:13;;;;;;;63.38;20.73;;;;;;;;;;5131421;27;20043;-48
2022/12/01 07:13:40;;;;;;;74.60;21.13;;;;;;;;;;5129309;27;20047;-50
2022/12/01 07:16:08;;;;;;;74.15;24.65;;;;;;;;;;5131794;27;20070;-52
2022/12/01 07:18:35;;;;;;;48.88;18.55;;;;;;;;;;5131476;27;20555;-47
2022/12/01 07:21:03;;;;;;;49.75;19.38;;;;;;;;;;5130912;27;20067;-51
2022/12/01 07:23:31;;;;;;;62.03;18.75;;;;;;;;;;5131511;27;20646;-50
2022/12/01 07:26:09;;;;;;;58.38;17.98;;;;;;;;;;5131357;27;20105;-48
2022/12/01 07:28:35;;;;;;;43.58;16.40;;;;;;;;;;5130234;27;20039;-46
2022/12/01 07:31:12;;;;;;;57.53;19.33;;;;;;;;;;5128862;27;20031;-46
2022/12/01 07:33:39;;;;;;;57.63;20.05;;;;;;;;;;5129366;27;20039;-46
2022/12/01 07:36:06;;;;;;;63.17;18.05;;;;;;;;;;5125976;27;20035;-48
2022/12/01 07:38:33;;;;;;;74.05;20.67;;;;;;;;;;5130554;27;20113;-47
2022/12/01 07:41:04;;;;;;;59.28;19.83;;;;;;;;;;5111899;27;20039;-47
2022/12/01 07:43:31;;;;;;;63.38;21.23;;;;;;;;;;5127647;27;20113;-46
2022/12/01 07:46:12;;;;;;;46.95;19.05;;;;;;;;;;5129988;27;20035;-48
2022/12/01 07:48:47;;;;;;;49.50;19.33;;;;;;;;;;5130290;27;20043;-47
2022/12/01 07:51:15;;;;;;;55.55;20.10;;;;;;;;;;5131304;27;20548;-48
2022/12/01 07:53:43;;;;;;;70.75;21.48;;;;;;;;;;5111740;27;20050;-48
2022/12/01 07:56:09;;;;;;;63.00;21.38;;;;;;;;;;5129807;27;20043;-46
2022/12/01 07:58:36;;;;;;;77.13;23.77;;;;;;;;;;5131322;27;20042;-46
2022/12/01 08:01:11;;;;;;;62.83;20.83;;;;;;;;;;5131838;27;20031;-47
2022/12/01 08:03:38;;;;;;;68.00;21.23;;;;;;;;;;5128265;27;20141;-48
2022/12/01 08:06:05;;;;;;;55.42;20.77;;;;;;;;;;5131349;27;20541;-47
2022/12/01 08:08:34;;;;;;;66.47;21.38;;;;;;;;;;5130538;27;20068;-49
2022/12/01 08:11:01;;;;;;;71.30;28.13;;;;;;;;;;5131081;27;20053;-49
2022/12/01 08:13:28;;;;;;;81.43;38.70;;;;;;;;;;5131993;27;20071;-47
2022/12/01 08:15:54;;;;;;;77.07;33.03;;;;;;;;;;5131011;27;20050;-52
2022/12/01 08:18:21;;;;;;;83.55;40.25;;;;;;;;;;5130819;27;20039;-47
2022/12/01 08:20:54;;;;;;;79.15;28.88;;;;;;;;;;5130543;27;20035;-46
2022/12/01 08:23:21;;;;;;;138.32;89.20;;;;;;;;;;5127803;27;20043;-47
2022/12/01 08:25:47;;;;;;;103.88;41.17;;;;;;;;;;5130658;27;20046;-49
2022/12/01 08:28:14;;;;;;;52.70;20.70;;;;;;;;;;5131587;27;20050;-46
2022/12/01 08:30:40;;;;;;;61.45;24.88;;;;;;;;;;5112252;27;20839;-50
2022/12/01 08:33:07;;;;;;;72.15;22.58;;;;;;;;;;5130291;27;20042;-46
2022/12/01 08:35:36;;;;;;;62.33;23.90;;;;;;;;;;5130636;27;20046;-51
2022/12/01 08:38:03;;;;;;;66.18;22.52;;;;;;;;;;5130613;27;20039;-49
2022/12/01 08:40:29;;;;;;;57.75;22.17;;;;;;;;;;5131081;27;20047;-51
2022/12/01 08:42:56;;;;;;;54.10;20.30;;;;;;;;;;5130418;27;20039;-46
2022/12/01 08:45:22;;;;;;;62.03;21.70;;;;;;;;;;5130255;27;20039;-51
2022/12/01 08:47:49;;;;;;;72.82;22.52;;;;;;;;;;5130282;27;20506;-50
2022/12/01 08:50:16;;;;;;;59.25;20.90;;;;;;;;;;5130329;27;20046;-48
2022/12/01 08:52:42;;;;;;;60.13;22.40;;;;;;;;;;5130205;27;20039;-49
2022/12/01 08:55:09;;;;;;;55.80;21.63;;;;;;;;;;5130410;27;20047;-50
2022/12/01 08:57:35;;;;;;;62.67;21.30;;;;;;;;;;5130036;27;20112;-50
2022/12/01 09:00:02;;;;;;;53.03;19.48;;;;;;;;;;5130710;27;20037;-48
2022/12/01 09:02:29;;;;;;;57.83;20.63;;;;;;;;;;5129476;27;20538;-47
2022/12/01 09:04:55;;;;;;;56.67;19.73;;;;;;;;;;5129798;27;20051;-50
2022/12/01 09:07:22;;;;;;;58.28;20.17;;;;;;;;;;5130719;27;20049;-48
2022/12/01 09:09:52;;;;;;;59.92;20.23;;;;;;;;;;5129555;27;20043;-51
2022/12/01 09:12:19;;;;;;;62.78;22.52;;;;;;;;;;5111845;27;20039;-51
2022/12/01 09:14:48;;;;;;;55.80;19.70;;;;;;;;;;5111802;27;20051;-50
2022/12/01 09:17:16;;;;;;;64.85;20.67;;;;;;;;;;5129746;27;20092;-47
2022/12/01 09:19:43;;;;;;;74.05;21.77;;;;;;;;;;5129734;27;20054;-46
2022/12/01 09:22:10;;;;;;;57.40;21.27;;;;;;;;;;5130036;27;20039;-52
2022/12/01 09:24:37;;;;;;;58.72;20.10;;;;;;;;;;5129314;27;20039;-46
2022/12/01 09:27:04;;;;;;;52.70;21.38;;;;;;;;;;5129809;27;20039;-46
2022/12/01 09:29:30;;;;;;;56.58;19.98;;;;;;;;;;5129835;27;20387;-47
2022/12/01 09:31:58;;;;;;;62.40;20.20;;;;;;;;;;5129488;27;20130;-45
2022/12/01 09:34:24;;;;;;;53.25;19.17;;;;;;;;;;5130132;27;20114;-48
2022/12/01 09:36:53;;;;;;;60.00;19.67;;;;;;;;;;5104856;28;20633;-45
2022/12/01 09:39:20;;;;;;;65.70;19.80;;;;;;;;;;5125223;27;20065;-47
2022/12/01 09:41:48;;;;;;;60.03;19.02;;;;;;;;;;5129186;27;20122;-47
2022/12/01 09:44:24;;;;;;;48.88;17.88;;;;;;;;;;5129166;27;20039;-46
2022/12/01 09:47:04;;;;;;;59.95;19.45;;;;;;;;;;5129642;27;20487;-47
2022/12/01 09:49:39;;;;;;;59.45;20.25;;;;;;;;;;5130264;27;20118;-47
2022/12/01 09:52:10;;;;;;;62.20;20.48;;;;;;;;;;5129862;27;20047;-47
2022/12/01 09:54:36;;;;;;;67.25;22.35;;;;;;;;;;5128466;27;20098;-47
2022/12/01 09:57:03;;;;;;;72.32;21.83;;;;;;;;;;5110534;27;20043;-46
2022/12/01 09:59:36;;;;;;;55.95;20.45;;;;;;;;;;5126309;27;20035;-47
2022/12/01 10:02:02;;;;;;;;;;;;;;;;;;5129299;27;20507;-44
2022/12/01 10:04:41;;;;;;;58.67;18.92;;;;;;;;;;5128936;27;19972;-50
2022/12/01 10:07:19;;;;;;;63.42;20.75;;;;;;;;;;5129885;27;20074;-46
2022/12/01 10:09:50;;;;;;;49.40;19.30;;;;;;;;;;5128626;27;20560;-47
2022/12/01 10:12:19;;;;;;;66.72;21.35;;;;;;;;;;5122496;27;20050;-46
2022/12/01 10:14:46;;;;;;;65.45;21.33;;;;;;;;;;5128798;27;20047;-45
2022/12/01 10:17:21;;;;;;;66.63;21.02;;;;;;;;;;5128917;27;20063;-47
2022/12/01 10:19:51;;;;;;;66.65;21.75;;;;;;;;;;5128450;27;20418;-47
2022/12/01 10:22:30;;;;;;;64.28;24.05;;;;;;;;;;5127601;27;20042;-47
2022/12/01 10:25:15;;;;;;;70.53;22.60;;;;;;;;;;5128262;27;20046;-47
2022/12/01 10:28:00;;;;;;;87.80;26.88;;;;;;;;;;5127482;27;20495;-46
2022/12/01 10:30:27;;;;;;;75.68;24.42;;;;;;;;;;5127685;27;20035;-45
2022/12/01 10:32:53;;;;;;;64.25;23.58;;;;;;;;;;5120611;27;20036;-47
2022/12/01 10:35:21;;;;;;;65.22;24.48;;;;;;;;;;5128541;27;20043;-46
2022/12/01 10:37:50;;;;;;;81.68;25.05;;;;;;;;;;5128766;28;20039;-45
2022/12/01 10:40:17;;;;;;;76.55;26.40;;;;;;;;;;5129372;27;20039;-46
2022/12/01 10:42:45;;;;;;;78.32;24.52;;;;;;;;;;5128331;27;20047;-46
2022/12/01 10:45:25;;;;;;;78.35;24.90;;;;;;;;;;5128097;28;20049;-47
2022/12/01 10:48:11;;;;;;;63.15;23.13;;;;;;;;;;5128684;27;20058;-45
2022/12/01 10:50:38;;;;;;;66.75;24.08;;;;;;;;;;5128892;27;20126;-46
2022/12/01 10:53:05;;;;;;;91.07;27.30;;;;;;;;;;5125231;27;20055;-45
2022/12/01 10:55:36;;;;;;;55.67;21.20;;;;;;;;;;5129347;27;20043;-50
2022/12/01 10:58:15;;;;;;;72.20;25.33;;;;;;;;;;5128933;27;20045;-48
2022/12/01 11:00:45;;;;;;;79.20;24.92;;;;;;;;;;5128430;27;20058;-49
2022/12/01 11:03:29;;;;;;;71.47;25.15;;;;;;;;;;5128053;27;20055;-46
2022/12/01 11:05:57;;;;;;;60.25;24.13;;;;;;;;;;5129194;28;20046;-47
2022/12/01 11:08:30;;;;;;;74.60;26.92;;;;;;;;;;5127878;27;20042;-48
2022/12/01 11:10:57;;;;;;;77.80;25.83;;;;;;;;;;5127643;27;20055;-49
2022/12/01 11:13:27;;;;;;;69.68;25.10;;;;;;;;;;5129234;27;20495;-51
2022/12/01 11:15:58;;;;;;;86.88;25.13;;;;;;;;;;5127708;28;20411;-51
2022/12/01 11:18:30;;;;;;;76.18;24.75;;;;;;;;;;5128249;27;20039;-51
2022/12/01 11:21:25;;;;;;;69.68;23.95;;;;;;;;;;5128018;27;20141;-52
2022/12/01 11:23:52;;;;;;;76.85;23.98;;;;;;;;;;5125701;28;20039;-48
2022/12/01 11:26:27;;;;;;;70.38;26.23;;;;;;;;;;5128161;27;20047;-51
2022/12/01 11:28:54;;;;;;;79.93;24.58;;;;;;;;;;5126540;27;20027;-52
2022/12/01 11:31:22;;;;;;;65.50;22.98;;;;;;;;;;5132848;27;20045;-46
2022/12/01 11:33:52;;;;;;;65.25;22.25;;;;;;;;;;5130237;27;20127;-47
2022/12/01 11:36:29;;;;;;;69.38;23.25;;;;;;;;;;5130017;27;20035;-46
2022/12/01 11:38:57;;;;;;;67.60;25.50;;;;;;;;;;5128628;27;20104;-49
2022/12/01 11:41:26;;;;;;;68.03;23.15;;;;;;;;;;5131482;27;20046;-49
2022/12/01 11:43:55;;;;;;;82.35;24.73;;;;;;;;;;5129747;27;20066;-46
2022/12/01 11:46:29;;;;;;;85.22;25.90;;;;;;;;;;5132339;27;20471;-46
2022/12/01 11:48:56;;;;;;;66.30;22.73;;;;;;;;;;5130793;27;20551;-47
2022/12/01 11:51:27;;;;;;;56.75;21.95;;;;;;;;;;5131464;27;20045;-46
2022/12/01 11:54:26;;;;;;;74.63;22.33;;;;;;;;;;5130802;27;20031;-47
2022/12/01 11:56:53;;;;;;;68.80;24.60;;;;;;;;;;5027146;28;20064;-49
2022/12/01 11:59:39;;;;;;;77.25;25.75;;;;;;;;;;5025413;28;20053;-46
2022/12/01 12:02:22;;;;;;;58.70;22.58;;;;;;;;;;5027944;28;20518;-49
2022/12/01 12:05:05;;;;;;;68.10;22.73;;;;;;;;;;5028135;28;20055;-47
2022/12/01 12:07:38;;;;;;;55.92;20.80;;;;;;;;;;5028817;28;20057;-45
2022/12/01 12:10:23;;;;;;;67.60;21.45;;;;;;;;;;5027794;28;20038;-49
2022/12/01 12:12:53;;;;;;;80.85;22.90;;;;;;;;;;5027186;28;20092;-48
2022/12/01 12:15:35;;;;;;;70.43;22.13;;;;;;;;;;5027485;28;20484;-46
2022/12/01 12:18:20;;;;;;;58.63;22.55;;;;;;;;;;5028112;28;20463;-46
2022/12/01 12:21:01;;;;;;;80.57;29.15;;;;;;;;;;5027558;28;20056;-46
2022/12/01 12:23:41;;;;;;;87.72;22.73;;;;;;;;;;5026910;28;20103;-46
2022/12/01 12:26:23;;;;;;;78.00;22.77;;;;;;;;;;5024823;28;20525;-46
2022/12/01 12:29:11;;;;;;;70.50;20.27;;;;;;;;;;5027139;28;20048;-49
2022/12/01 12:32:01;;;;;;;66.75;20.20;;;;;;;;;;5041059;27;20056;-47
2022/12/01 12:34:30;;;;;;;62.22;20.98;;;;;;;;;;5131021;27;20439;-47
2022/12/01 12:37:09;;;;;;;55.20;20.20;;;;;;;;;;5130815;27;20096;-47
2022/12/01 12:39:48;;;;;;;54.00;20.05;;;;;;;;;;5130478;27;20050;-47
2022/12/01 12:42:34;;;;;;;64.95;22.13;;;;;;;;;;5127641;27;20104;-47
2022/12/01 12:45:00;;;;;;;85.60;26.08;;;;;;;;;;5128496;27;20047;-47
2022/12/01 12:47:35;;;;;;;77.22;22.13;;;;;;;;;;5130575;27;20070;-50
2022/12/01 12:50:08;;;;;;;61.08;19.77;;;;;;;;;;5131139;27;20047;-50
2022/12/01 12:52:35;;;;;;;46.58;16.23;;;;;;;;;;5131549;27;20038;-50
2022/12/01 12:55:02;;;;;;;55.53;14.52;;;;;;;;;;5129691;27;20410;-46
2022/12/01 12:57:28;;;;;;;41.22;13.77;;;;;;;;;;5128568;27;20548;-45
2022/12/01 13:00:14;;;;;;;49.65;12.98;;;;;;;;;;5130234;27;20046;-47
2022/12/01 13:02:46;;;;;;;59.88;15.25;;;;;;;;;;5126117;27;20062;-46
2022/12/01 13:05:23;;;;;;;59.38;17.05;;;;;;;;;;5129044;27;20761;-46
2022/12/01 13:07:54;;;;;;;55.40;15.98;;;;;;;;;;5128114;27;20043;-47
2022/12/01 13:10:24;;;;;;;79.35;19.05;;;;;;;;;;5128915;27;20038;-45
2022/12/01 13:12:54;;;;;;;83.97;18.08;;;;;;;;;;5124389;27;20118;-46
2022/12/01 13:15:22;;;;;;;47.22;15.40;;;;;;;;;;5128957;27;20136;-46
2022/12/01 13:18:07;;;;;;;76.97;18.83;;;;;;;;;;5128454;27;20039;-48
2022/12/01 13:20:36;;;;;;;75.68;17.65;;;;;;;;;;5124841;27;20140;-46
2022/12/01 13:23:03;;;;;;;55.25;14.93;;;;;;;;;;5127811;27;20049;-46
2022/12/01 13:25:33;;;;;;;79.80;17.83;;;;;;;;;;5128473;27;20050;-47
2022/12/01 13:28:01;;;;;;;45.75;15.20;;;;;;;;;;5128315;27;20047;-45
2022/12/01 13:30:27;;;;;;;50.75;14.85;;;;;;;;;;5127633;27;20039;-46
2022/12/01 13:32:59;;;;;;;72.05;15.38;;;;;;;;;;5127556;27;20046;-45
2022/12/01 13:35:33;;;;;;;55.20;16.58;;;;;;;;;;5127975;27;20051;-46
2022/12/01 13:38:19;;;;;;;54.60;16.45;;;;;;;;;;5123936;27;20047;-47
2022/12/01 13:40:45;;;;;;;70.32;17.65;;;;;;;;;;5124958;27;20130;-46
2022/12/01 13:43:17;;;;;;;58.70;14.68;;;;;;;;;;5128845;27;20070;-46
2022/12/01 13:45:44;;;;;;;81.28;18.48;;;;;;;;;;5124066;27;20039;-46
2022/12/01 13:48:25;;;;;;;71.20;18.25;;;;;;;;;;5127548;27;20084;-50
2022/12/01 13:50:52;;;;;;;61.83;17.50;;;;;;;;;;5125573;27;20046;-49
2022/12/01 13:53:19;;;;;;;62.92;16.23;;;;;;;;;;5126336;27;20039;-50
2022/12/01 13:55:59;;;;;;;81.38;19.80;;;;;;;;;;5127056;27;20042;-51
2022/12/01 13:58:46;;;;;;;69.75;16.35;;;;;;;;;;5126552;27;20045;-46
2022/12/01 14:01:18;;;;;;;54.00;13.35;;;;;;;;;;5127524;27;20410;-47
2022/12/01 14:04:08;;;;;;;50.70;14.68;;;;;;;;;;5127044;27;20133;-46
2022/12/01 14:06:38;;;;;;;65.93;16.90;;;;;;;;;;5113431;27;20465;-48
2022/12/01 14:09:06;;;;;;;66.05;17.70;;;;;;;;;;5123050;27;20536;-47
2022/12/01 14:11:33;;;;;;;46.05;14.80;;;;;;;;;;5127897;27;20039;-46
2022/12/01 14:14:11;;;;;;;63.65;18.17;;;;;;;;;;5127600;27;20070;-46
2022/12/01 14:16:49;;;;;;;52.42;17.23;;;;;;;;;;5128352;27;20131;-47
2022/12/01 14:19:24;;;;;;;52.75;16.27;;;;;;;;;;5129010;27;20552;-46
2022/12/01 14:21:51;;;;;;;59.30;18.52;;;;;;;;;;5128316;27;20096;-49
2022/12/01 14:24:50;;;;;;;90.38;21.08;;;;;;;;;;5126553;27;20479;-48
2022/12/01 14:27:31;;;;;;;60.70;15.75;;;;;;;;;;5063239;28;20570;-48
2022/12/01 14:30:17;;;;;;;61.67;17.15;;;;;;;;;;5063901;28;20052;-47
2022/12/01 14:32:44;;;;;;;52.70;15.18;;;;;;;;;;5063806;28;20052;-50
2022/12/01 14:35:12;;;;;;;60.13;15.75;;;;;;;;;;5064683;28;20040;-50
2022/12/01 14:37:41;;;;;;;49.90;16.60;;;;;;;;;;5065345;28;20052;-47
2022/12/01 14:40:11;;;;;;;58.38;17.95;;;;;;;;;;5064122;28;20055;-46